createdAt,value
2022-12-25T00:01:07.506Z,99866.59
2022-12-25T00:03:48.732Z,99867.53
2022-12-25T00:06:17.693Z,99873.72
2022-12-25T00:08:46.757Z,99869.38
2022-12-25T00:11:17.186Z,99871.09
2022-12-25T00:13:48.364Z,99867.66
2022-12-25T00:16:19.218Z,99866.84
2022-12-25T00:18:48.503Z,99861.59
2022-12-25T00:21:17.097Z,99865.03
2022-12-25T00:23:46.033Z,99872.91
2022-12-25T00:26:17.649Z,99878.09
2022-12-25T00:28:47.895Z,99881.63
2022-12-25T00:31:18.733Z,99886.00
2022-12-25T00:33:49.435Z,99885.13
2022-12-25T00:36:21.176Z,99890.34
2022-12-25T00:38:50.046Z,99885.13
2022-12-25T00:41:42.077Z,99892.97
2022-12-25T00:44:14.713Z,99886.88
2022-12-25T00:46:43.791Z,99878.25
2022-12-25T00:49:13.555Z,99883.53
2022-12-25T00:51:42.030Z,99890.53
2022-12-25T00:54:10.882Z,99897.47
2022-12-25T00:56:40.076Z,99905.31
2022-12-25T00:59:08.920Z,99907.09
2022-12-25T01:01:40.230Z,99908.03
2022-12-25T01:04:09.495Z,99911.44
2022-12-25T01:06:38.171Z,99921.84
2022-12-25T01:09:24.193Z,99920.94
2022-12-25T01:11:52.601Z,99920.84
2022-12-25T01:14:21.380Z,99927.81
2022-12-25T01:16:51.333Z,99920.75
2022-12-25T01:19:20.088Z,99926.84
2022-12-25T01:21:48.549Z,99921.56
2022-12-25T01:24:17.294Z,99918.88
2022-12-25T01:26:45.705Z,99914.44
2022-12-25T01:29:14.537Z,99908.25
2022-12-25T01:31:43.101Z,99905.63
2022-12-25T01:34:13.226Z,99892.50
2022-12-25T01:36:41.686Z,99885.47
2022-12-25T01:39:10.438Z,99883.75
2022-12-25T01:41:39.052Z,99889.03
2022-12-25T01:44:29.017Z,99889.94
2022-12-25T01:46:57.516Z,99892.63
2022-12-25T01:49:28.035Z,99896.19
2022-12-25T01:52:00.427Z,99890.03
2022-12-25T01:54:34.487Z,99890.03
2022-12-25T01:57:05.462Z,99893.63
2022-12-25T01:59:34.621Z,99886.69
2022-12-25T02:02:05.185Z,99885.00
2022-12-25T02:04:43.274Z,99897.22
2022-12-25T02:07:16.137Z,99901.72
2022-12-25T02:09:47.319Z,99902.69
2022-12-25T02:12:19.826Z,99916.66
2022-12-25T02:14:49.926Z,99916.69
2022-12-25T02:17:26.964Z,99919.22
2022-12-25T02:20:31.710Z,99927.13
2022-12-25T02:23:14.702Z,99928.88
2022-12-25T02:26:03.404Z,99928.88
2022-12-25T02:28:45.406Z,99928.03
2022-12-25T02:31:18.949Z,99944.78
2022-12-25T02:34:06.693Z,99938.69
2022-12-25T02:36:42.094Z,99947.44
2022-12-25T02:39:37.818Z,99958.81
2022-12-25T02:42:12.569Z,99958.81
2022-12-25T02:45:03.263Z,99957.91
2022-12-25T02:47:51.539Z,99967.53
2022-12-25T02:50:40.114Z,99960.63
2022-12-25T02:53:28.800Z,99956.41
2022-12-25T02:56:16.481Z,99958.31
2022-12-25T02:59:04.817Z,99956.47
2022-12-25T03:01:58.701Z,99959.94
2022-12-25T03:04:48.143Z,99957.44
2022-12-25T03:07:20.035Z,99961.66
2022-12-25T03:10:10.029Z,99965.28
2022-12-25T03:12:47.406Z,99958.03
2022-12-25T03:15:36.285Z,99955.34
2022-12-25T03:18:10.227Z,99967.38
2022-12-25T03:20:56.990Z,99955.97
2022-12-25T03:23:47.845Z,99966.25
2022-12-25T03:26:34.866Z,99958.34
2022-12-25T03:29:03.463Z,99953.88
2022-12-25T03:31:39.465Z,99954.66
2022-12-25T03:35:03.275Z,99954.72
2022-12-25T03:38:01.305Z,99959.16
2022-12-25T03:41:07.000Z,99957.34
2022-12-25T03:43:59.795Z,99966.88
2022-12-25T03:46:51.995Z,99973.00
2022-12-25T03:49:45.120Z,99971.28
2022-12-25T03:52:35.986Z,99966.97
2022-12-25T03:55:26.993Z,99978.31
2022-12-25T03:58:24.459Z,99978.25
2022-12-25T04:01:11.083Z,99976.47
2022-12-25T04:03:56.877Z,99978.22
2022-12-25T04:06:44.480Z,99981.69
2022-12-25T04:09:30.511Z,99987.78
2022-12-25T04:12:16.790Z,99993.88
2022-12-25T04:15:02.716Z,99997.34
2022-12-25T04:17:49.176Z,100000.00
2022-12-25T04:20:35.169Z,99992.22
2022-12-25T04:23:22.699Z,100000.09
2022-12-25T04:26:08.642Z,99982.56
2022-12-25T04:28:54.859Z,99980.91
2022-12-25T04:31:40.619Z,99976.53
2022-12-25T04:34:26.561Z,99994.00
2022-12-25T04:36:55.001Z,99998.34
2022-12-25T04:39:25.308Z,99993.41
2022-12-25T04:41:53.722Z,100011.94
2022-12-25T04:44:22.426Z,100015.28
2022-12-25T04:46:51.062Z,100018.72
2022-12-25T04:49:19.940Z,100017.38
2022-12-25T04:51:48.337Z,100012.84
2022-12-25T04:54:17.297Z,100012.78
2022-12-25T04:56:47.089Z,100018.75
2022-12-25T04:59:15.898Z,100016.09
2022-12-25T05:01:44.559Z,100013.41
2022-12-25T05:04:13.419Z,100014.25
2022-12-25T05:06:42.047Z,100014.16
2022-12-25T05:09:11.194Z,100017.63
2022-12-25T05:11:39.649Z,100021.97
2022-12-25T05:14:09.753Z,100021.97
2022-12-25T05:16:38.428Z,100018.41
2022-12-25T05:19:07.295Z,100013.13
2022-12-25T05:21:35.810Z,100019.31
2022-12-25T05:24:04.620Z,100028.13
2022-12-25T05:26:33.019Z,100029.91
2022-12-25T05:29:01.823Z,100025.56
2022-12-25T05:31:31.696Z,100022.13
2022-12-25T05:34:00.487Z,100026.53
2022-12-25T05:36:29.264Z,100026.63
2022-12-25T05:38:58.009Z,100043.25
2022-12-25T05:41:32.215Z,100047.69
2022-12-25T05:44:03.481Z,100055.63
2022-12-25T05:46:33.297Z,100063.53
2022-12-25T05:49:02.066Z,100055.66
2022-12-25T05:51:30.927Z,100061.81
2022-12-25T05:53:59.798Z,100060.94
2022-12-25T05:56:28.694Z,100056.59
2022-12-25T05:58:57.871Z,100051.31
2022-12-25T06:01:28.779Z,100044.34
2022-12-25T06:03:59.228Z,100045.25
2022-12-25T06:06:27.875Z,100047.91
2022-12-25T06:08:56.695Z,100047.94
2022-12-25T06:11:25.214Z,100054.97
2022-12-25T06:13:54.273Z,100054.97
2022-12-25T06:16:22.795Z,100052.41
2022-12-25T06:18:53.650Z,100050.66
2022-12-25T06:21:23.779Z,100056.91
2022-12-25T06:23:52.559Z,100063.00
2022-12-25T06:26:21.464Z,100063.88
2022-12-25T06:28:50.204Z,100066.44
2022-12-25T06:31:20.930Z,100067.25
2022-12-25T06:33:50.627Z,100072.41
2022-12-25T06:36:21.418Z,100057.47
2022-12-25T06:38:52.281Z,100060.97
2022-12-25T06:41:22.785Z,100073.19
2022-12-25T06:43:53.456Z,100070.50
2022-12-25T06:46:23.643Z,100070.41
2022-12-25T06:48:52.598Z,100072.09
2022-12-25T06:51:24.465Z,100072.09
2022-12-25T06:53:55.264Z,100085.16
2022-12-25T06:56:26.288Z,100086.88
2022-12-25T06:58:57.240Z,100084.22
2022-12-25T07:01:28.320Z,100092.09
2022-12-25T07:03:59.885Z,100093.72
2022-12-25T07:06:28.924Z,100094.56
2022-12-25T07:08:59.157Z,100096.34
2022-12-25T07:11:27.719Z,100104.16
2022-12-25T07:13:56.500Z,100112.88
2022-12-25T07:16:25.048Z,100102.34
2022-12-25T07:18:53.814Z,100113.66
2022-12-25T07:21:22.707Z,100117.97
2022-12-25T07:23:51.578Z,100125.81
2022-12-25T07:26:21.381Z,100132.78
2022-12-25T07:28:50.144Z,100139.75
2022-12-25T07:31:20.047Z,100146.75
2022-12-25T07:33:49.274Z,100144.06
2022-12-25T07:36:17.841Z,100147.53
2022-12-25T07:38:50.439Z,100140.56
2022-12-25T07:41:19.142Z,100137.00
2022-12-25T07:43:52.677Z,100137.84
2022-12-25T07:46:21.598Z,100136.97
2022-12-25T07:48:50.656Z,100128.16
2022-12-25T07:51:19.092Z,100127.31
2022-12-25T07:53:47.965Z,100130.81
2022-12-25T07:56:18.311Z,100136.97
2022-12-25T07:58:48.454Z,100152.69
2022-12-25T08:01:21.233Z,100157.00
2022-12-25T08:03:51.425Z,100152.53
2022-12-25T08:06:20.816Z,100150.72
2022-12-25T08:08:49.794Z,100142.75
2022-12-25T08:11:18.295Z,100141.91
2022-12-25T08:13:47.222Z,100133.16
2022-12-25T08:16:15.702Z,100139.28
2022-12-25T08:18:46.120Z,100134.81
2022-12-25T08:21:16.873Z,100140.50
2022-12-25T08:23:48.047Z,100142.06
2022-12-25T08:26:18.604Z,100149.03
2022-12-25T08:28:47.808Z,100155.81
2022-12-25T08:31:18.807Z,100157.34
2022-12-25T08:33:50.415Z,100154.34
2022-12-25T08:36:19.813Z,100152.56
2022-12-25T08:38:49.242Z,100161.19
2022-12-25T08:41:18.012Z,100157.59
2022-12-25T08:43:47.419Z,100166.53
2022-12-25T08:46:16.264Z,100166.44
2022-12-25T08:48:46.343Z,100159.34
2022-12-25T08:51:18.468Z,100164.41
2022-12-25T08:53:49.502Z,100163.66
2022-12-25T08:56:19.690Z,100156.63
2022-12-25T08:58:48.471Z,100159.97
2022-12-25T09:01:17.012Z,100160.66
2022-12-25T09:03:45.947Z,100167.38
2022-12-25T09:06:17.307Z,100178.56
2022-12-25T09:08:49.634Z,100180.06
2022-12-25T09:11:20.731Z,100188.50
2022-12-25T09:13:50.035Z,100180.94
2022-12-25T09:16:21.302Z,100181.31
2022-12-25T09:18:50.653Z,100179.94
2022-12-25T09:21:20.534Z,100194.66
2022-12-25T09:23:49.590Z,100191.81
2022-12-25T09:26:19.830Z,100197.34
2022-12-25T09:28:52.302Z,100194.13
2022-12-25T09:31:22.795Z,100189.22
2022-12-25T09:33:52.670Z,100195.09
2022-12-25T09:36:23.506Z,100199.84
2022-12-25T09:38:53.173Z,100197.88
2022-12-25T09:41:29.740Z,100187.31
2022-12-25T09:44:05.268Z,100203.44
2022-12-25T09:46:41.390Z,100200.59
2022-12-25T09:49:19.867Z,100201.97
2022-12-25T09:51:56.950Z,100205.44
2022-12-25T09:54:37.836Z,100206.75
2022-12-25T09:57:07.337Z,100202.81
2022-12-25T09:59:36.453Z,100204.22
2022-12-25T10:02:29.472Z,100204.47
2022-12-25T10:05:21.944Z,100206.69
2022-12-25T10:08:06.284Z,100203.53
2022-12-25T10:10:49.842Z,100198.63
2022-12-25T10:13:36.936Z,100197.34
2022-12-25T10:16:19.177Z,100200.56
2022-12-25T10:19:05.978Z,100207.09
2022-12-25T10:21:35.039Z,100202.75
2022-12-25T10:24:12.308Z,100194.50
2022-12-25T10:26:41.343Z,100198.19
2022-12-25T10:29:15.133Z,100197.84
2022-12-25T10:31:48.201Z,100199.56
2022-12-25T10:34:17.965Z,100195.00
2022-12-25T10:36:47.626Z,100197.44
2022-12-25T10:39:19.983Z,100192.75
2022-12-25T10:42:05.734Z,100188.69
2022-12-25T10:44:35.033Z,100189.72
2022-12-25T10:47:05.577Z,100190.44
2022-12-25T10:49:36.783Z,100189.44
2022-12-25T10:52:19.717Z,100187.53
2022-12-25T10:54:49.923Z,100174.00
2022-12-25T10:57:21.703Z,100167.72
2022-12-25T10:59:52.394Z,100165.97
2022-12-25T11:02:26.322Z,100164.97
2022-12-25T11:05:03.647Z,100169.09
2022-12-25T11:07:34.269Z,100163.13
2022-12-25T11:10:16.429Z,100169.13
2022-12-25T11:12:47.518Z,100160.22
2022-12-25T11:15:34.944Z,100158.00
2022-12-25T11:18:04.818Z,100158.66
2022-12-25T11:20:33.538Z,100152.47
2022-12-25T11:23:02.375Z,100156.78
2022-12-25T11:25:32.264Z,100151.53
2022-12-25T11:28:03.818Z,100153.28
2022-12-25T11:30:34.519Z,100145.63
2022-12-25T11:33:08.033Z,100150.00
2022-12-25T11:35:52.949Z,100147.94
2022-12-25T11:38:21.991Z,100136.91
2022-12-25T11:40:55.562Z,100139.47
2022-12-25T11:43:29.111Z,100135.19
2022-12-25T11:46:05.362Z,100141.25
2022-12-25T11:48:40.368Z,100139.56
2022-12-25T11:51:11.159Z,100134.63
2022-12-25T11:53:44.639Z,100137.31
2022-12-25T11:56:18.181Z,100132.28
2022-12-25T11:58:50.344Z,100131.94
2022-12-25T12:01:28.042Z,100140.03
2022-12-25T12:03:59.190Z,100133.97
2022-12-25T12:06:34.258Z,100133.16
2022-12-25T12:09:18.565Z,100126.56
2022-12-25T12:12:00.032Z,100128.25
2022-12-25T12:14:44.228Z,100128.50
2022-12-25T12:17:14.604Z,100133.44
2022-12-25T12:19:43.427Z,100136.13
2022-12-25T12:22:20.149Z,100139.34
2022-12-25T12:24:54.587Z,100136.78
2022-12-25T12:27:38.178Z,100134.13
2022-12-25T12:30:23.326Z,100131.50
2022-12-25T12:32:54.234Z,100127.28
2022-12-25T12:35:27.732Z,100133.44
2022-12-25T12:37:59.618Z,100121.97
2022-12-25T12:40:35.434Z,100119.19
2022-12-25T12:43:07.703Z,100123.03
2022-12-25T12:45:38.990Z,100120.41
2022-12-25T12:48:15.982Z,100109.47
2022-12-25T12:50:44.826Z,100116.78
2022-12-25T12:53:30.590Z,100112.75
2022-12-25T12:56:10.859Z,100119.97
2022-12-25T12:58:46.306Z,100116.75
2022-12-25T13:01:28.066Z,100108.56
2022-12-25T13:04:33.504Z,100122.63
2022-12-25T13:07:14.262Z,100116.78
2022-12-25T13:09:57.725Z,100118.84
2022-12-25T13:12:26.729Z,100120.72
2022-12-25T13:14:56.800Z,100122.41
2022-12-25T13:17:28.565Z,100115.63
2022-12-25T13:19:59.582Z,100113.72
2022-12-25T13:22:33.148Z,100115.53
2022-12-25T13:25:05.076Z,100110.34
2022-12-25T13:27:35.075Z,100111.06
2022-12-25T13:30:15.461Z,100125.44
2022-12-25T13:32:45.928Z,100130.16
2022-12-25T13:35:15.727Z,100128.81
2022-12-25T13:37:45.312Z,100134.81
2022-12-25T13:40:23.839Z,100142.75
2022-12-25T13:42:57.802Z,100137.78
2022-12-25T13:45:30.301Z,100143.25
2022-12-25T13:48:00.111Z,100140.16
2022-12-25T13:50:30.798Z,100138.47
2022-12-25T13:53:11.227Z,100138.38
2022-12-25T13:55:39.788Z,100144.34
2022-12-25T13:58:16.672Z,100143.59
2022-12-25T14:00:50.565Z,100136.84
2022-12-25T14:03:23.204Z,100142.91
2022-12-25T14:05:58.067Z,100130.53
2022-12-25T14:08:29.007Z,100132.41
2022-12-25T14:10:58.489Z,100139.50
2022-12-25T14:13:29.965Z,100138.81
2022-12-25T14:16:00.806Z,100150.25
2022-12-25T14:18:31.220Z,100147.56
2022-12-25T14:21:02.599Z,100143.41
2022-12-25T14:23:41.411Z,100152.28
2022-12-25T14:26:16.465Z,100145.41
2022-12-25T14:28:48.988Z,100145.47
2022-12-25T14:31:19.973Z,100156.13
2022-12-25T14:33:50.512Z,100153.38
2022-12-25T14:36:20.028Z,100154.56
2022-12-25T14:38:58.813Z,100160.66
2022-12-25T14:41:38.255Z,100152.06
2022-12-25T14:44:31.492Z,100150.16
2022-12-25T14:47:15.901Z,100146.72
2022-12-25T14:49:44.879Z,100147.00
2022-12-25T14:52:20.608Z,100152.25
2022-12-25T14:54:52.292Z,100154.34
2022-12-25T14:57:28.137Z,100158.94
2022-12-25T15:00:03.773Z,100154.44
2022-12-25T15:02:45.710Z,100156.53
2022-12-25T15:05:26.716Z,100163.59
2022-12-25T15:08:18.522Z,100148.09
2022-12-25T15:11:04.103Z,100168.69
2022-12-25T15:13:34.307Z,100167.81
2022-12-25T15:16:07.612Z,100166.06
2022-12-25T15:18:41.054Z,100179.22
2022-12-25T15:21:17.748Z,100184.50
2022-12-25T15:23:46.352Z,100200.56
2022-12-25T15:26:16.019Z,100196.25
2022-12-25T15:28:44.526Z,100198.41
2022-12-25T15:31:21.192Z,100200.09
2022-12-25T15:33:51.666Z,100200.38
2022-12-25T15:36:20.820Z,100195.13
2022-12-25T15:38:49.925Z,100194.25
2022-12-25T15:41:35.582Z,100196.00
2022-12-25T15:44:05.398Z,100190.84
2022-12-25T15:46:35.067Z,100180.31
2022-12-25T15:49:05.602Z,100186.78
2022-12-25T15:51:34.548Z,100194.69
2022-12-25T15:54:03.132Z,100192.97
2022-12-25T15:56:38.015Z,100194.72
2022-12-25T15:59:06.541Z,100191.25
2022-12-25T16:01:35.494Z,100197.41
2022-12-25T16:04:05.914Z,100198.25
2022-12-25T16:06:34.784Z,100198.19
2022-12-25T16:09:03.262Z,100206.97
2022-12-25T16:11:32.183Z,100206.19
2022-12-25T16:14:00.772Z,100209.84
2022-12-25T16:16:29.601Z,100210.72
2022-12-25T16:18:58.293Z,100196.78
2022-12-25T16:21:33.417Z,100200.25
2022-12-25T16:24:01.795Z,100202.09
2022-12-25T16:26:33.235Z,100202.13
2022-12-25T16:29:06.773Z,100199.56
2022-12-25T16:31:36.146Z,100204.78
2022-12-25T16:34:05.738Z,100200.47
2022-12-25T16:36:36.796Z,100196.03
2022-12-25T16:39:06.014Z,100195.09
2022-12-25T16:41:35.884Z,100191.63
2022-12-25T16:44:09.203Z,100199.50
2022-12-25T16:46:38.699Z,100199.41
2022-12-25T16:49:07.650Z,100191.63
2022-12-25T16:51:37.855Z,100196.94
2022-12-25T16:54:06.360Z,100192.47
2022-12-25T16:56:36.763Z,100191.59
2022-12-25T16:59:05.177Z,100195.88
2022-12-25T17:01:34.288Z,100199.34
2022-12-25T17:04:02.952Z,100195.78
2022-12-25T17:06:32.108Z,100199.25
2022-12-25T17:09:03.709Z,100193.03
2022-12-25T17:11:32.997Z,100197.38
2022-12-25T17:14:04.918Z,100193.03
2022-12-25T17:16:35.689Z,100183.31
2022-12-25T17:19:08.164Z,100189.50
2022-12-25T17:21:38.285Z,100191.34
2022-12-25T17:24:08.752Z,100186.94
2022-12-25T17:26:38.147Z,100182.56
2022-12-25T17:29:06.603Z,100186.13
2022-12-25T17:31:35.917Z,100179.13
2022-12-25T17:34:05.565Z,100176.44
2022-12-25T17:36:35.857Z,100168.56
2022-12-25T17:39:07.163Z,100167.69
2022-12-25T17:41:37.389Z,100175.69
2022-12-25T17:44:06.222Z,100173.91
2022-12-25T17:46:34.976Z,100173.13
2022-12-25T17:49:03.695Z,100188.00
2022-12-25T17:51:32.950Z,100185.34
2022-12-25T17:54:04.238Z,100189.88
2022-12-25T17:56:34.378Z,100191.53
2022-12-25T17:59:30.307Z,100183.56
2022-12-25T18:01:59.319Z,100182.03
2022-12-25T18:04:27.992Z,100179.41
2022-12-25T18:06:57.020Z,100175.94
2022-12-25T18:09:25.758Z,100174.16
2022-12-25T18:11:54.613Z,100170.81
2022-12-25T18:14:23.086Z,100162.09
2022-12-25T18:16:54.608Z,100163.00
2022-12-25T18:19:23.161Z,100155.22
2022-12-25T18:21:52.250Z,100162.28
2022-12-25T18:24:20.969Z,100152.72
2022-12-25T18:26:50.421Z,100151.81
2022-12-25T18:29:19.139Z,100157.03
2022-12-25T18:31:48.438Z,100155.25
2022-12-25T18:34:18.443Z,100156.97
2022-12-25T18:36:47.502Z,100148.25
2022-12-25T18:39:16.093Z,100145.56
2022-12-25T18:41:59.211Z,100149.97
2022-12-25T18:44:27.705Z,100147.31
2022-12-25T18:46:56.449Z,100156.13
2022-12-25T18:49:26.717Z,100156.97
2022-12-25T18:51:55.529Z,100142.94
2022-12-25T18:54:44.292Z,100146.41
2022-12-25T18:57:13.180Z,100149.91
2022-12-25T18:59:42.650Z,100155.19
2022-12-25T19:02:12.744Z,100160.44
2022-12-25T19:04:43.574Z,100156.13
2022-12-25T19:07:13.157Z,100159.59
2022-12-25T19:09:41.708Z,100155.19
2022-12-25T19:12:10.432Z,100152.59
2022-12-25T19:14:47.477Z,100149.09
2022-12-25T19:17:17.343Z,100148.16
2022-12-25T19:19:47.684Z,100152.53
2022-12-25T19:22:16.780Z,100143.84
2022-12-25T19:24:45.468Z,100155.19
2022-12-25T19:27:14.733Z,100149.88
2022-12-25T19:29:43.192Z,100145.56
2022-12-25T19:32:11.922Z,100139.38
2022-12-25T19:34:40.450Z,100139.34
2022-12-25T19:37:10.606Z,100137.53
2022-12-25T19:39:39.899Z,100130.50
2022-12-25T19:42:08.692Z,100127.00
2022-12-25T19:44:37.524Z,100124.31
2022-12-25T19:47:06.577Z,100121.69
2022-12-25T19:49:35.129Z,100121.69
2022-12-25T19:52:05.075Z,100114.66
2022-12-25T19:54:35.482Z,100125.19
2022-12-25T19:57:04.669Z,100115.66
2022-12-25T19:59:33.689Z,100112.94
2022-12-25T20:02:02.638Z,100104.16
2022-12-25T20:04:31.303Z,100104.13
2022-12-25T20:07:00.047Z,100098.03
2022-12-25T20:09:28.707Z,100092.78
2022-12-25T20:11:58.866Z,100086.63
2022-12-25T20:14:27.380Z,100089.28
2022-12-25T20:16:56.173Z,100097.09
2022-12-25T20:19:24.740Z,100090.03
2022-12-25T20:21:54.741Z,100106.66
2022-12-25T20:24:24.698Z,100098.69
2022-12-25T20:26:58.798Z,100097.75
2022-12-25T20:29:29.007Z,100099.38
2022-12-25T20:31:57.869Z,100103.75
2022-12-25T20:34:26.324Z,100100.16
2022-12-25T20:36:55.381Z,100099.28
2022-12-25T20:39:23.893Z,100084.34
2022-12-25T20:41:53.765Z,100094.88
2022-12-25T20:44:22.227Z,100101.81
2022-12-25T20:46:52.324Z,100111.31
2022-12-25T20:49:20.977Z,100106.00
2022-12-25T20:51:50.368Z,100098.97
2022-12-25T20:54:18.886Z,100097.25
2022-12-25T20:56:49.710Z,100098.00
2022-12-25T20:59:18.281Z,100091.00
2022-12-25T21:01:47.973Z,100095.28
2022-12-25T21:04:17.966Z,100084.72
2022-12-25T21:06:46.908Z,100075.28
2022-12-25T21:09:15.339Z,100073.41
2022-12-25T21:11:44.406Z,100083.19
2022-12-25T21:14:13.176Z,100075.41
2022-12-25T21:16:43.866Z,100076.34
2022-12-25T21:19:12.466Z,100088.56
2022-12-25T21:21:43.675Z,100094.22
2022-12-25T21:24:12.376Z,100101.41
2022-12-25T21:26:47.600Z,100101.28
2022-12-25T21:29:17.883Z,100076.50
2022-12-25T21:32:03.999Z,100083.28
2022-12-25T21:34:32.462Z,100075.22
2022-12-25T21:37:03.484Z,100078.66
2022-12-25T21:39:32.066Z,100082.06
2022-12-25T21:42:00.901Z,100084.38
2022-12-25T21:44:29.384Z,100088.16
2022-12-25T21:46:58.229Z,100086.78
2022-12-25T21:49:43.903Z,100079.75
2022-12-25T21:52:14.130Z,100083.78
2022-12-25T21:54:42.743Z,100080.22
2022-12-25T21:57:11.481Z,100088.00
2022-12-25T21:59:40.170Z,100091.41
2022-12-25T22:02:11.611Z,100097.72
2022-12-25T22:04:40.659Z,100095.66
2022-12-25T22:07:22.897Z,100089.38
2022-12-25T22:09:52.810Z,100091.91
2022-12-25T22:12:40.311Z,100091.81
2022-12-25T22:15:11.174Z,100085.75
2022-12-25T22:17:58.854Z,100075.59
2022-12-25T22:20:30.144Z,100076.59
2022-12-25T22:23:00.673Z,100082.84
2022-12-25T22:25:29.375Z,100089.81
2022-12-25T22:27:58.895Z,100093.13
2022-12-25T22:30:30.615Z,100084.16
2022-12-25T22:33:02.851Z,100082.47
2022-12-25T22:35:31.333Z,100087.69
2022-12-25T22:38:01.626Z,100082.53
2022-12-25T22:40:30.115Z,100077.78
2022-12-25T22:42:59.020Z,100070.63
2022-12-25T22:45:27.573Z,100075.00
2022-12-25T22:47:56.414Z,100082.84
2022-12-25T22:50:24.830Z,100080.22
2022-12-25T22:52:54.070Z,100070.47
2022-12-25T22:55:23.981Z,100065.09
2022-12-25T22:57:53.000Z,100068.56
2022-12-25T23:00:21.738Z,100062.38
2022-12-25T23:02:50.773Z,100060.56
2022-12-25T23:05:19.425Z,100062.28
2022-12-25T23:07:48.417Z,100063.09
2022-12-25T23:10:17.311Z,100061.69
2022-12-25T23:13:10.313Z,100061.47
2022-12-25T23:15:39.605Z,100070.34
2022-12-25T23:18:25.932Z,100065.81
2022-12-25T23:21:16.799Z,100061.44
2022-12-25T23:24:03.068Z,100049.97
2022-12-25T23:26:31.693Z,100041.13
2022-12-25T23:29:18.598Z,100038.50
2022-12-25T23:31:53.568Z,100037.63
2022-12-25T23:34:23.050Z,100035.88
2022-12-25T23:36:51.442Z,100029.84
2022-12-25T23:39:20.398Z,100039.44
2022-12-25T23:41:49.101Z,100033.31
2022-12-25T23:44:19.447Z,100030.59
2022-12-25T23:46:53.235Z,100032.28
2022-12-25T23:49:22.956Z,100028.66
2022-12-25T23:51:51.594Z,100032.94
2022-12-25T23:54:22.877Z,100032.34
2022-12-25T23:56:52.436Z,100032.16
2022-12-25T23:59:22.593Z,100022.59
